Time;durP1;ratioP1;P1;durP2;ratioP2;P2;SDS_P1;SDS_P2;PMS_P1;PMS_P2;Temp;Humidity;BMP_temperature;BMP_pressure;BME280_temperature;BME280_humidity;BME280_pressure;Samples;Min_cycle;Max_cycle;Signal;HPM_P1;HPM_P2
2022/06/05 00:00:05;;;;;;;7.77;7.07;;;18.70;26.70;;;;;;2609574;54;20444;-76
2022/06/05 00:02:39;;;;;;;8.37;7.57;;;18.50;35.30;;;;;;2612329;47;20660;-83
2022/06/05 00:05:36;;;;;;;8.47;7.73;;;18.60;28.00;;;;;;2612679;54;20421;-83
2022/06/05 00:08:02;;;;;;;7.87;7.17;;;18.70;27.40;;;;;;2611301;54;20453;-82
2022/06/05 00:10:38;;;;;;;8.03;7.43;;;18.60;27.50;;;;;;2612571;39;20823;-82
2022/06/05 00:13:28;;;;;;;9.70;7.20;;;18.60;27.60;;;;;;2610792;54;20416;-74
2022/06/05 00:15:54;;;;;;;8.90;8.20;;;18.60;27.90;;;;;;2610949;39;20750;-74
2022/06/05 00:18:20;;;;;;;8.50;7.70;;;18.50;28.30;;;;;;2611166;54;21065;-83
2022/06/05 00:20:47;;;;;;;8.83;7.93;;;18.50;28.40;;;;;;2612105;54;20162;-82
2022/06/05 00:23:13;;;;;;;11.10;8.10;;;18.40;28.70;;;;;;2611511;54;20414;-76
2022/06/05 00:25:41;;;;;;;8.57;7.97;;;18.40;29.00;;;;;;2609694;54;20396;-75
2022/06/05 00:28:37;;;;;;;8.70;8.10;;;18.40;29.70;;;;;;2610874;47;20188;-74
2022/06/05 00:31:03;;;;;;;8.93;8.10;;;18.40;29.70;;;;;;2609689;54;20457;-76
2022/06/05 00:33:28;;;;;;;8.80;7.90;;;18.30;31.00;;;;;;2609768;54;20512;-76
2022/06/05 00:36:00;;;;;;;8.80;8.10;;;18.30;31.70;;;;;;2610930;54;20200;-76
2022/06/05 00:38:47;;;;;;;9.57;8.77;;;18.30;32.40;;;;;;2610545;47;20169;-77
2022/06/05 00:41:40;;;;;;;9.87;8.97;;;18.20;33.90;;;;;;2610941;54;20445;-74
2022/06/05 00:44:11;;;;;;;7.40;6.90;;;18.20;34.30;;;;;;2609388;54;20454;-73
2022/06/05 00:46:38;;;;;;;8.80;8.20;;;18.20;34.60;;;;;;2610081;54;20461;-74
2022/06/05 00:49:06;;;;;;;8.23;7.63;;;18.10;35.80;;;;;;2610197;54;20926;-73
2022/06/05 00:51:32;;;;;;;9.83;8.83;;;18.10;36.10;;;;;;2609443;54;20425;-73
2022/06/05 00:53:59;;;;;;;8.33;7.43;;;18.00;38.00;;;;;;2609507;54;20418;-74
2022/06/05 00:56:25;;;;;;;9.17;8.47;;;17.90;40.50;;;;;;2610307;54;20476;-74
2022/06/05 00:58:52;;;;;;;9.03;8.23;;;17.80;42.70;;;;;;2609811;54;21060;-74
2022/06/05 01:01:18;;;;;;;8.70;8.10;;;17.80;44.70;;;;;;2609978;54;20399;-74
2022/06/05 01:03:44;;;;;;;10.40;8.93;;;17.80;45.60;;;;;;2609198;47;20459;-73
2022/06/05 01:06:11;;;;;;;9.73;8.83;;;17.70;45.80;;;;;;2610187;54;20153;-80
2022/06/05 01:08:39;;;;;;;10.23;9.33;;;17.70;46.80;;;;;;2611026;54;20417;-79
2022/06/05 01:11:17;;;;;;;8.53;7.83;;;17.80;46.90;;;;;;2612116;54;20402;-82
2022/06/05 01:13:46;;;;;;;9.90;9.20;;;17.70;47.10;;;;;;2612973;54;20432;-81
2022/06/05 01:16:26;;;;;;;9.77;8.97;;;17.80;47.80;;;;;;2615700;54;20410;-82
2022/06/05 01:19:11;;;;;;;9.63;8.80;;;17.70;48.80;;;;;;2617835;54;20441;-82
2022/06/05 01:21:59;;;;;;;9.93;9.13;;;17.60;50.40;;;;;;2618042;54;20422;-79
2022/06/05 01:25:02;;;;;;;9.10;8.40;;;17.60;51.00;;;;;;2614555;54;20453;-79
2022/06/05 01:27:31;;;;;;;9.83;8.93;;;17.60;52.70;;;;;;2612996;54;20461;-78
2022/06/05 01:30:03;;;;;;;10.87;9.53;;;17.60;52.70;;;;;;2613688;54;20432;-77
2022/06/05 01:32:53;;;;;;;10.20;9.40;;;17.50;55.10;;;;;;2611813;54;20520;-76
2022/06/05 01:35:48;;;;;;;9.40;8.70;;;17.50;56.30;;;;;;2611019;54;20448;-75
2022/06/05 01:38:20;;;;;;;9.90;9.10;;;17.50;56.50;;;;;;2613215;39;20793;-79
2022/06/05 01:40:52;;;;;;;13.67;9.80;;;17.50;56.30;;;;;;2612122;54;20383;-79
2022/06/05 01:43:22;;;;;;;9.90;9.10;;;17.50;58.40;;;;;;2612747;54;20984;-77
2022/06/05 01:45:54;;;;;;;10.07;9.13;;;17.40;60.00;;;;;;2613917;54;20907;-77
2022/06/05 01:48:39;;;;;;;10.20;9.30;;;17.30;61.90;;;;;;2612050;54;20413;-77
2022/06/05 01:51:09;;;;;;;9.87;8.97;;;17.20;65.20;;;;;;2611784;54;20982;-82
2022/06/05 01:53:42;;;;;;;10.50;9.07;;;17.20;68.30;;;;;;2612148;54;20448;-83
2022/06/05 01:56:27;;;;;;;9.77;8.80;;;17.00;74.50;;;;;;2611663;47;20424;-79
2022/06/05 01:59:01;;;;;;;10.30;9.40;;;16.40;81.70;;;;;;2611433;47;20460;-79
2022/06/05 02:01:50;;;;;;;10.60;9.53;;;17.00;80.40;;;;;;2612225;51;20541;-73
2022/06/05 02:04:34;;;;;;;9.97;9.07;;;16.90;81.00;;;;;;2610775;39;20834;-74
2022/06/05 02:07:11;;;;;;;10.37;9.47;;;16.90;82.30;;;;;;2611058;51;20429;-78
2022/06/05 02:09:59;;;;;;;9.93;9.13;;;16.90;82.50;;;;;;2611030;54;20425;-78
2022/06/05 02:12:25;;;;;;;10.97;10.17;;;16.90;85.20;;;;;;2611101;54;20449;-77
2022/06/05 02:14:51;;;;;;;11.57;10.53;;;16.80;89.20;;;;;;2611424;54;20402;-80
2022/06/05 02:17:17;;;;;;;11.93;10.97;;;16.80;90.40;;;;;;2612447;39;20823;-76
2022/06/05 02:19:44;;;;;;;10.97;10.07;;;16.70;90.70;;;;;;2611527;39;20812;-75
2022/06/05 02:22:24;;;;;;;10.23;9.37;;;16.80;90.90;;;;;;2612451;39;20780;-80
2022/06/05 02:24:52;;;;;;;11.20;10.23;;;16.80;90.90;;;;;;2614527;54;20389;-79
2022/06/05 02:27:21;;;;;;;10.20;9.40;;;16.80;91.30;;;;;;2611840;54;20928;-73
2022/06/05 02:29:48;;;;;;;12.30;11.20;;;16.80;90.60;;;;;;2610741;54;20428;-73
2022/06/05 02:32:42;;;;;;;11.73;10.80;;;16.80;90.90;;;;;;2610830;54;20471;-74
2022/06/05 02:35:32;;;;;;;13.20;10.27;;;16.70;92.70;;;;;;2610649;39;20812;-74
2022/06/05 02:38:27;;;;;;;11.40;10.60;;;16.60;93.80;;;;;;2609703;54;20416;-79
2022/06/05 02:41:10;;;;;;;11.13;10.23;;;16.60;95.60;;;;;;2610445;47;20436;-77
2022/06/05 02:46:54;;;;;;;11.70;10.80;;;16.50;97.80;;;;;;2609531;54;20422;-76
2022/06/05 02:49:38;;;;;;;11.50;10.60;;;16.50;99.00;;;;;;2610900;54;20430;-76
2022/06/05 02:52:06;;;;;;;12.97;9.90;;;16.50;98.80;;;;;;2611817;54;20464;-77
2022/06/05 02:54:39;;;;;;;11.40;10.37;;;16.40;99.50;;;;;;2610014;54;20424;-79
2022/06/05 02:57:05;;;;;;;12.23;11.07;;;16.40;99.90;;;;;;2610688;54;20408;-77
2022/06/05 02:59:31;;;;;;;11.87;10.77;;;16.30;99.90;;;;;;2610838;54;21094;-74
2022/06/05 03:04:42;;;;;;;12.50;11.50;;;16.10;99.90;;;;;;2612068;54;20420;-84
2022/06/05 03:07:08;;;;;;;12.53;11.17;;;16.10;99.90;;;;;;2612620;54;20460;-83
2022/06/05 03:09:35;;;;;;;11.77;10.87;;;16.20;99.90;;;;;;2610348;54;20425;-79
2022/06/05 03:12:01;;;;;;;12.87;11.77;;;16.20;99.90;;;;;;2611929;39;20821;-78
2022/06/05 03:14:27;;;;;;;13.70;12.40;;;16.10;99.90;;;;;;2611780;46;20439;-74
2022/06/05 03:16:53;;;;;;;12.43;11.33;;;16.10;99.90;;;;;;2611312;54;20394;-74
2022/06/05 03:19:20;;;;;;;14.57;13.17;;;16.10;99.90;;;;;;2611353;54;20420;-76
2022/06/05 03:21:46;;;;;;;12.80;11.70;;;16.10;99.90;;;;;;2610503;47;20190;-77
2022/06/05 03:24:11;;;;;;;12.97;11.97;;;16.10;99.90;;;;;;2610648;39;20824;-73
2022/06/05 03:26:37;;;;;;;13.20;12.07;;;16.20;99.90;;;;;;2609793;39;20784;-74
2022/06/05 03:29:07;;;;;;;13.30;12.10;;;16.20;99.90;;;;;;2610029;54;20181;-78
2022/06/05 03:31:34;;;;;;;13.23;11.90;;;16.20;99.90;;;;;;2611097;54;20160;-78
2022/06/05 03:34:00;;;;;;;12.07;11.00;;;16.20;99.90;;;;;;2610124;54;20520;-77
2022/06/05 03:36:26;;;;;;;13.67;12.50;;;16.10;99.90;;;;;;2610692;47;20435;-77
2022/06/05 03:38:52;;;;;;;14.97;12.07;;;16.10;99.90;;;;;;2609547;47;20473;-76
2022/06/05 03:41:18;;;;;;;12.83;11.20;;;16.10;99.90;;;;;;2609633;54;20177;-75
2022/06/05 03:43:45;;;;;;;14.20;12.80;;;16.10;99.90;;;;;;2610108;51;20446;-77
2022/06/05 03:46:13;;;;;;;13.20;11.90;;;16.20;99.90;;;;;;2610645;39;20550;-77
2022/06/05 03:48:39;;;;;;;11.73;10.70;;;16.20;99.90;;;;;;2611953;54;21285;-83
2022/06/05 03:51:17;;;;;;;12.03;11.03;;;16.30;99.90;;;;;;2612774;54;20392;-84
2022/06/05 03:53:43;;;;;;;13.30;11.63;;;16.30;99.90;;;;;;2610515;47;20427;-74
2022/06/05 03:56:21;;;;;;;12.27;11.27;;;16.30;99.90;;;;;;2610563;39;20915;-73
2022/06/05 03:58:48;;;;;;;11.67;10.67;;;16.40;99.90;;;;;;2610342;47;20494;-77
2022/06/05 04:01:16;;;;;;;11.73;10.70;;;16.50;99.90;;;;;;2612673;54;20455;-77
2022/06/05 04:03:43;;;;;;;11.03;10.10;;;16.50;99.90;;;;;;2612599;54;20430;-79
2022/06/05 04:06:11;;;;;;;11.37;10.47;;;16.50;99.90;;;;;;2612874;54;20507;-78
2022/06/05 04:08:38;;;;;;;12.07;10.97;;;16.60;99.90;;;;;;2611834;54;20411;-73
2022/06/05 04:11:17;;;;;;;12.30;11.30;;;16.70;99.90;;;;;;2610338;54;21029;-74
2022/06/05 04:13:43;;;;;;;11.90;10.90;;;16.70;99.90;;;;;;2608506;54;20385;-78
2022/06/05 04:16:11;;;;;;;16.20;11.60;;;16.80;99.90;;;;;;2610925;54;20471;-78
2022/06/05 04:18:37;;;;;;;11.87;10.53;;;16.80;98.30;;;;;;2609805;54;20421;-76
2022/06/05 04:21:13;;;;;;;11.10;10.10;;;16.90;97.20;;;;;;2610014;31;20946;-77
2022/06/05 04:23:38;;;;;;;12.10;11.00;;;16.90;97.20;;;;;;2610084;39;20770;-78
2022/06/05 04:26:09;;;;;;;12.07;10.93;;;17.00;96.90;;;;;;2610619;54;20448;-77
2022/06/05 04:28:36;;;;;;;11.13;10.00;;;17.00;95.90;;;;;;2610512;54;20417;-77
2022/06/05 04:31:02;;;;;;;11.80;10.80;;;17.00;95.70;;;;;;2609715;54;21048;-76
2022/06/05 04:33:29;;;;;;;11.20;10.20;;;;;;;;;;2610423;54;20426;-84
2022/06/05 04:35:54;;;;;;;15.00;10.23;;;17.20;91.60;;;;;;2615698;54;20412;-83
2022/06/05 04:38:20;;;;;;;10.30;9.40;;;17.30;90.90;;;;;;2617420;54;20869;-83
2022/06/05 04:40:46;;;;;;;11.53;9.87;;;;;;;;;;2609752;54;20181;-75
2022/06/05 04:43:13;;;;;;;11.17;10.27;;;17.50;82.50;;;;;;2609921;54;20810;-76
2022/06/05 04:45:39;;;;;;;10.73;9.73;;;17.50;81.80;;;;;;2610376;54;20488;-73
2022/06/05 04:48:05;;;;;;;11.17;10.07;;;17.50;82.70;;;;;;2610084;54;20405;-73
2022/06/05 04:50:30;;;;;;;10.10;9.30;;;17.60;82.30;;;;;;2609116;54;20426;-76
2022/06/05 04:52:56;;;;;;;12.60;9.43;;;17.60;79.00;;;;;;2611330;54;20413;-76
2022/06/05 04:55:22;;;;;;;9.77;8.87;;;17.60;80.30;;;;;;2610864;54;20432;-74
2022/06/05 04:57:48;;;;;;;10.13;9.33;;;17.60;81.40;;;;;;2610916;46;20667;-71
2022/06/05 05:00:14;;;;;;;10.90;10.00;;;17.60;80.50;;;;;;2611035;54;20157;-75
2022/06/05 05:02:40;;;;;;;10.10;9.17;;;17.70;78.80;;;;;;2613087;54;20301;-75
2022/06/05 05:05:07;;;;;;;11.20;10.40;;;17.70;79.50;;;;;;2611758;47;20442;-74
2022/06/05 05:07:33;;;;;;;11.10;10.20;;;17.80;76.90;;;;;;2612266;54;20430;-74
2022/06/05 05:09:59;;;;;;;10.90;10.10;;;17.90;74.40;;;;;;2609277;54;20417;-76
2022/06/05 05:12:24;;;;;;;11.50;10.53;;;17.90;75.60;;;;;;2611282;54;20477;-76
2022/06/05 05:14:50;;;;;;;11.13;10.13;;;17.90;73.20;;;;;;2611032;54;20177;-74
2022/06/05 05:17:16;;;;;;;10.50;9.50;;;17.90;72.60;;;;;;2610489;47;20802;-73
2022/06/05 05:19:42;;;;;;;12.27;11.20;;;17.90;72.60;;;;;;2611400;54;20186;-77
2022/06/05 05:22:08;;;;;;;10.53;9.77;;;18.00;72.90;;;;;;2610104;39;20599;-78
2022/06/05 05:24:33;;;;;;;11.73;10.67;;;18.20;69.10;;;;;;2610846;54;20679;-74
2022/06/05 05:26:59;;;;;;;14.63;10.30;;;18.10;67.00;;;;;;2611065;54;20165;-74
2022/06/05 05:29:26;;;;;;;10.23;9.40;;;18.20;64.40;;;;;;2610143;39;20832;-75
2022/06/05 05:31:52;;;;;;;10.50;9.67;;;18.10;63.80;;;;;;2610202;54;20204;-76
2022/06/05 05:34:18;;;;;;;11.10;9.97;;;18.10;64.80;;;;;;2609624;54;20448;-74
2022/06/05 05:36:44;;;;;;;9.90;9.20;;;18.20;64.40;;;;;;2610557;54;20547;-74
2022/06/05 05:42:07;;;;;;;10.23;9.33;;;18.50;58.30;;;;;;2611444;54;20185;-76
2022/06/05 05:44:51;;;;;;;10.83;9.93;;;18.50;57.40;;;;;;2609960;54;20430;-79
2022/06/05 05:47:19;;;;;;;9.00;8.23;;;18.60;58.00;;;;;;2610121;54;20428;-80
2022/06/05 05:49:45;;;;;;;11.03;10.13;;;18.70;57.70;;;;;;2611350;54;20412;-78
2022/06/05 05:52:11;;;;;;;10.77;9.97;;;18.80;55.00;;;;;;2610156;54;20450;-78
2022/06/05 05:54:39;;;;;;;9.97;8.93;;;18.80;54.50;;;;;;2609263;54;20978;-79
2022/06/05 05:57:05;;;;;;;10.13;9.27;;;18.90;52.80;;;;;;2611058;54;20422;-79
2022/06/05 05:59:31;;;;;;;10.27;9.37;;;19.00;49.80;;;;;;2609814;47;20470;-78
2022/06/05 06:01:57;;;;;;;11.07;9.97;;;19.10;49.60;;;;;;2608334;54;20421;-79
2022/06/05 06:04:23;;;;;;;11.70;8.87;;;19.00;47.90;;;;;;2609767;54;20459;-76
2022/06/05 06:06:49;;;;;;;10.60;9.70;;;19.00;49.70;;;;;;2611936;54;20169;-76
2022/06/05 06:09:16;;;;;;;11.07;10.23;;;19.00;47.90;;;;;;2613535;47;20165;-75
2022/06/05 06:11:42;;;;;;;10.30;9.40;;;19.10;48.00;;;;;;2610387;54;20416;-75
2022/06/05 06:14:08;;;;;;;9.80;8.70;;;19.10;47.00;;;;;;2612462;47;20502;-84
2022/06/05 06:16:35;;;;;;;10.40;9.60;;;19.10;46.60;;;;;;2615053;54;20888;-84
2022/06/05 06:19:02;;;;;;;10.40;9.40;;;19.20;48.00;;;;;;2612313;47;20170;-73
2022/06/05 06:21:28;;;;;;;10.60;9.60;;;19.20;48.70;;;;;;2609825;54;20434;-73
2022/06/05 06:23:54;;;;;;;11.30;10.40;;;19.30;46.90;;;;;;2610710;47;20442;-77
2022/06/05 06:26:19;;;;;;;11.60;10.50;;;19.40;45.30;;;;;;2612150;39;20775;-77
2022/06/05 06:28:45;;;;;;;11.57;10.60;;;19.40;43.80;;;;;;2610439;54;20555;-73
2022/06/05 06:31:14;;;;;;;10.20;9.30;;;19.40;44.60;;;;;;2609766;54;20418;-73
2022/06/05 06:33:40;;;;;;;9.93;9.03;;;19.50;41.80;;;;;;2610850;54;20270;-77
2022/06/05 06:36:09;;;;;;;9.93;8.83;;;19.70;41.70;;;;;;2612218;54;20426;-75
2022/06/05 06:38:36;;;;;;;11.57;9.50;;;19.80;42.50;;;;;;2611685;54;20415;-77
2022/06/05 06:41:05;;;;;;;10.07;9.27;;;19.80;39.50;;;;;;2609988;54;20426;-77
2022/06/05 06:43:32;;;;;;;8.70;8.10;;;19.70;39.80;;;;;;2610368;54;21012;-73
2022/06/05 06:45:59;;;;;;;9.67;8.97;;;19.70;40.70;;;;;;2610309;47;20451;-73
2022/06/05 06:48:26;;;;;;;9.60;8.70;;;19.70;40.60;;;;;;2608641;54;20420;-73
2022/06/05 06:50:53;;;;;;;10.83;8.97;;;19.70;40.90;;;;;;2608703;54;21006;-74
2022/06/05 06:53:20;;;;;;;11.13;9.90;;;19.80;39.50;;;;;;2610458;39;20772;-74
2022/06/05 06:55:47;;;;;;;9.53;8.73;;;19.70;38.80;;;;;;2609722;54;20420;-73
2022/06/05 06:58:12;;;;;;;11.77;9.53;;;19.70;39.40;;;;;;2610141;54;20444;-74
2022/06/05 07:00:38;;;;;;;10.47;9.00;;;19.70;41.50;;;;;;2610628;54;20431;-77
2022/06/05 07:03:05;;;;;;;10.20;9.33;;;19.80;41.40;;;;;;2610313;54;20155;-77
2022/06/05 07:05:31;;;;;;;10.60;9.70;;;19.80;40.10;;;;;;2614652;47;20166;-84
2022/06/05 07:07:57;;;;;;;10.77;9.70;;;19.90;39.80;;;;;;2615652;39;20815;-85
2022/06/05 07:10:23;;;;;;;10.30;9.50;;;19.80;38.90;;;;;;2610657;47;20786;-77
2022/06/05 07:12:49;;;;;;;10.30;9.50;;;19.90;39.00;;;;;;2609841;54;20713;-77
2022/06/05 07:15:16;;;;;;;8.87;8.07;;;19.90;39.00;;;;;;2609056;39;20586;-78
2022/06/05 07:17:42;;;;;;;10.53;9.53;;;20.00;38.40;;;;;;2610039;46;20432;-78
2022/06/05 07:20:08;;;;;;;10.73;9.40;;;20.00;39.10;;;;;;2611023;54;20502;-79
2022/06/05 07:22:35;;;;;;;10.50;9.57;;;20.20;39.90;;;;;;2610515;47;20915;-79
2022/06/05 07:25:01;;;;;;;10.57;9.77;;;20.20;39.30;;;;;;2609962;54;20399;-76
2022/06/05 07:27:28;;;;;;;10.27;9.50;;;20.20;38.30;;;;;;2609526;54;21037;-76
2022/06/05 07:29:54;;;;;;;10.90;10.00;;;20.30;37.80;;;;;;2611137;39;20752;-78
2022/06/05 07:32:20;;;;;;;10.87;9.90;;;20.30;36.30;;;;;;2609845;31;21021;-78
2022/06/05 07:34:47;;;;;;;9.87;9.17;;;20.20;37.60;;;;;;2609753;54;20404;-77
2022/06/05 07:37:13;;;;;;;9.33;8.43;;;20.30;37.10;;;;;;2610601;47;20428;-78
2022/06/05 07:39:40;;;;;;;10.40;9.60;;;20.20;37.10;;;;;;2609838;54;20414;-75
2022/06/05 07:42:07;;;;;;;9.43;8.60;;;20.30;36.50;;;;;;2607955;54;20438;-76
2022/06/05 07:44:33;;;;;;;9.93;9.03;;;20.40;36.40;;;;;;2610661;54;20429;-75
2022/06/05 07:47:03;;;;;;;11.43;10.30;;;20.50;34.10;;;;;;2610378;54;20433;-76
2022/06/05 07:49:29;;;;;;;10.87;9.97;;;20.60;34.00;;;;;;2607855;54;20439;-73
2022/06/05 07:54:40;;;;;;;10.67;9.67;;;20.80;32.60;;;;;;2608996;54;20161;-78
2022/06/05 07:57:09;;;;;;;10.00;9.20;;;21.10;29.30;;;;;;2606404;39;21663;-77
2022/06/05 07:59:38;;;;;;;9.87;9.07;;;21.00;28.60;;;;;;2609836;54;21050;-78
2022/06/05 08:02:07;;;;;;;18.83;10.20;;;21.10;28.00;;;;;;2610155;54;21103;-77
2022/06/05 08:04:35;;;;;;;10.77;9.80;;;21.10;27.30;;;;;;2610135;47;20454;-76
2022/06/05 08:07:03;;;;;;;10.17;9.30;;;21.20;26.90;;;;;;2609492;47;21112;-77
2022/06/05 08:09:31;;;;;;;10.20;9.50;;;21.40;27.30;;;;;;2609514;54;20442;-80
2022/06/05 08:11:57;;;;;;;10.10;9.23;;;21.70;24.70;;;;;;2609636;54;20483;-80
2022/06/05 08:14:23;;;;;;;9.57;8.87;;;22.00;23.90;;;;;;2610567;39;20835;-85
2022/06/05 08:16:49;;;;;;;9.17;8.40;;;22.50;21.70;;;;;;2613186;54;20419;-84
2022/06/05 08:19:19;;;;;;;10.40;9.50;;;23.10;17.30;;;;;;2610634;46;20427;-78
2022/06/05 08:21:46;;;;;;;9.87;9.17;;;23.70;14.40;;;;;;2606709;54;21130;-79
2022/06/05 08:24:13;;;;;;;9.40;8.70;;;24.30;10.20;;;;;;2606110;47;20523;-79
2022/06/05 08:26:40;;;;;;;9.97;9.03;;;24.50;8.40;;;;;;2610307;31;20989;-79
2022/06/05 08:29:06;;;;;;;10.40;9.60;;;24.50;9.60;;;;;;2609904;54;20423;-77
2022/06/05 08:31:35;;;;;;;9.50;8.70;;;24.40;7.90;;;;;;2610275;54;20458;-77
2022/06/05 08:34:02;;;;;;;10.57;9.57;;;24.50;10.10;;;;;;2609328;39;20855;-80
2022/06/05 08:36:28;;;;;;;9.93;9.30;;;25.10;6.40;;;;;;2611189;54;20890;-79
2022/06/05 08:41:57;;;;;;;9.33;8.73;;;25.60;5.70;;;;;;2609343;39;20835;-79
2022/06/05 08:44:29;;;;;;;9.60;8.90;;;25.60;5.90;;;;;;2611350;39;20829;-83
2022/06/05 08:47:13;;;;;;;10.40;9.30;;;25.30;6.50;;;;;;2612182;54;20419;-84
2022/06/05 08:49:52;;;;;;;9.40;8.60;;;25.00;6.90;;;;;;2610209;54;20443;-74
2022/06/05 08:52:43;;;;;;;8.93;8.30;;;25.00;7.60;;;;;;2609023;54;20502;-74
2022/06/05 08:55:21;;;;;;;9.63;8.70;;;25.20;7.00;;;;;;2610596;47;20427;-77
2022/06/05 08:57:52;;;;;;;10.13;9.40;;;25.50;6.50;;;;;;2609521;47;20419;-76
2022/06/05 09:00:24;;;;;;;9.77;9.07;;;25.50;5.60;;;;;;2611035;54;20540;-80
2022/06/05 09:03:24;;;;;;;10.53;9.53;;;25.50;5.30;;;;;;2612248;54;20413;-79
2022/06/05 09:06:01;;;;;;;9.10;8.30;;;25.70;4.70;;;;;;2609887;54;20512;-81
2022/06/05 09:08:31;;;;;;;10.87;10.00;;;25.50;4.60;;;;;;2611175;47;20475;-79
2022/06/05 09:11:04;;;;;;;10.73;9.80;;;25.10;5.10;;;;;;2610738;54;20410;-79
2022/06/05 09:13:50;;;;;;;11.40;10.63;;;24.90;7.40;;;;;;2608344;39;20603;-79
2022/06/05 09:16:23;;;;;;;10.33;9.63;;;24.70;7.40;;;;;;2610226;54;20539;-78
2022/06/05 09:18:49;;;;;;;9.63;8.97;;;24.70;7.60;;;;;;2609863;54;21131;-74
2022/06/05 09:21:22;;;;;;;9.77;8.97;;;24.90;8.80;;;;;;2609266;54;20419;-74
2022/06/05 09:24:03;;;;;;;9.87;9.17;;;25.00;8.70;;;;;;2606559;39;20717;-76
2022/06/05 09:26:45;;;;;;;9.47;8.87;;;25.00;7.90;;;;;;2609665;54;20411;-75
2022/06/05 09:29:25;;;;;;;10.50;9.40;;;24.80;8.40;;;;;;2610474;54;21033;-80
2022/06/05 09:32:03;;;;;;;10.10;9.40;;;24.70;9.00;;;;;;2610872;54;20526;-78
2022/06/05 09:34:53;;;;;;;9.47;8.90;;;24.50;10.50;;;;;;2610877;54;20416;-75
2022/06/05 09:37:48;;;;;;;9.90;9.10;;;24.50;11.60;;;;;;2609273;54;21092;-74
2022/06/05 09:40:22;;;;;;;9.57;8.77;;;24.20;12.60;;;;;;2609888;54;20435;-78
2022/06/05 09:43:22;;;;;;;10.40;9.60;;;24.40;12.40;;;;;;2611049;54;20536;-77
2022/06/05 09:46:29;;;;;;;10.20;9.37;;;24.40;12.40;;;;;;2611324;39;20744;-79
2022/06/05 09:49:13;;;;;;;10.43;9.53;;;24.00;12.50;;;;;;2612443;39;20856;-79
2022/06/05 09:51:42;;;;;;;10.63;9.90;;;23.70;14.30;;;;;;2612594;54;20471;-79
2022/06/05 09:54:15;;;;;;;11.17;10.37;;;23.60;15.50;;;;;;2614098;54;20440;-86
2022/06/05 09:59:50;;;;;;;9.73;9.03;;;23.30;17.50;;;;;;2616623;39;20899;-79
2022/06/05 10:02:22;;;;;;;10.20;9.50;;;23.50;17.60;;;;;;2611051;47;20431;-79
2022/06/05 10:04:50;;;;;;;10.23;9.30;;;23.50;17.60;;;;;;2610329;54;20433;-79
2022/06/05 10:07:43;;;;;;;10.50;9.70;;;23.50;17.60;;;;;;2610502;47;20431;-80
2022/06/05 10:10:19;;;;;;;10.83;9.90;;;23.40;18.80;;;;;;2610151;54;20443;-79
2022/06/05 10:12:56;;;;;;;9.60;8.90;;;23.30;20.50;;;;;;2611525;47;20445;-78
2022/06/05 10:15:59;;;;;;;10.43;9.53;;;23.30;22.20;;;;;;2611636;54;20396;-79
2022/06/05 10:18:39;;;;;;;13.83;9.20;;;23.30;22.60;;;;;;2609581;47;20460;-78
2022/06/05 10:21:09;;;;;;;9.00;8.30;;;23.10;25.70;;;;;;2611835;54;20993;-81
2022/06/05 10:23:51;;;;;;;10.83;9.93;;;22.80;26.90;;;;;;2614089;54;20403;-79
2022/06/05 10:26:29;;;;;;;9.17;8.47;;;22.60;33.00;;;;;;2611466;47;20471;-78
2022/06/05 10:29:25;;;;;;;9.07;8.17;;;22.20;41.60;;;;;;2613025;54;20458;-74
2022/06/05 10:32:00;;;;;;;9.43;8.63;;;22.00;52.30;;;;;;2612149;47;20438;-73
2022/06/05 10:34:38;;;;;;;9.57;8.87;;;22.10;55.10;;;;;;2610551;51;20419;-76
2022/06/05 10:37:16;;;;;;;9.87;9.07;;;22.20;59.10;;;;;;2611451;54;20468;-75
2022/06/05 10:39:55;;;;;;;9.70;9.10;;;22.50;57.40;;;;;;2610999;39;20933;-76
2022/06/05 10:42:59;;;;;;;11.43;10.50;;;22.70;53.10;;;;;;2609530;54;20403;-78
2022/06/05 10:45:39;;;;;;;10.10;9.40;;;23.00;52.80;;;;;;2610256;54;20514;-74
2022/06/05 10:48:59;;;;;;;11.13;10.33;;;22.60;59.80;;;;;;2610278;54;20415;-74
2022/06/05 10:51:35;;;;;;;9.93;9.10;;;22.30;80.30;;;;;;2608091;54;20431;-76
2022/06/05 10:54:14;;;;;;;9.90;9.20;;;22.20;70.40;;;;;;2611474;54;20399;-85
2022/06/05 10:56:58;;;;;;;10.30;9.60;;;22.30;68.60;;;;;;2617457;47;20415;-85
2022/06/05 10:59:37;;;;;;;10.20;9.50;;;22.40;73.60;;;;;;2614701;54;20447;-84
2022/06/05 11:02:23;;;;;;;11.27;10.37;;;22.50;74.10;;;;;;2616240;47;20439;-86
2022/06/05 11:05:21;;;;;;;11.40;10.60;;;22.80;69.40;;;;;;2614451;47;20441;-84
2022/06/05 11:07:50;;;;;;;10.87;10.10;;;22.60;76.70;;;;;;2615330;54;20482;-86
2022/06/05 11:13:51;;;;;;;11.37;10.57;;;21.90;96.80;;;;;;2608489;54;20430;-76
2022/06/05 11:16:42;;;;;;;11.97;10.87;;;21.50;99.90;;;;;;2609017;47;20424;-79
2022/06/05 11:19:34;;;;;;;13.47;12.37;;;21.60;99.90;;;;;;2609576;47;20416;-79
2022/06/05 11:22:13;;;;;;;13.13;12.03;;;21.30;99.90;;;;;;2609726;54;20447;-79
2022/06/05 11:25:10;;;;;;;13.83;12.80;;;21.10;99.90;;;;;;2611152;54;21006;-82
2022/06/05 11:27:54;;;;;;;14.27;13.17;;;20.80;99.90;;;;;;2618089;54;20416;-84
2022/06/05 11:30:24;;;;;;;14.40;13.10;;;20.50;99.90;;;;;;2609972;54;20477;-74
2022/06/05 11:33:23;;;;;;;14.37;13.20;;;20.20;99.90;;;;;;2605944;54;20431;-74
2022/06/05 11:36:22;;;;;;;15.60;14.30;;;20.00;99.90;;;;;;2608376;54;20415;-73
2022/06/05 11:39:10;;;;;;;15.67;14.27;;;20.00;99.90;;;;;;2612696;54;20414;-80
2022/06/05 11:41:42;;;;;;;14.60;13.40;;;19.90;99.90;;;;;;2615778;54;20425;-79
2022/06/05 11:44:21;;;;;;;13.83;12.77;;;20.10;99.90;;;;;;2611038;39;21018;-77
2022/06/05 11:47:34;;;;;;;13.80;12.73;;;20.10;99.90;;;;;;2608152;39;20793;-77
2022/06/05 11:50:29;;;;;;;14.50;13.40;;;20.30;99.90;;;;;;2605513;54;20482;-73
2022/06/05 11:53:05;;;;;;;14.43;13.43;;;20.40;99.90;;;;;;2607279;46;20429;-74
2022/06/05 11:55:45;;;;;;;13.50;12.37;;;20.40;99.90;;;;;;2610722;39;20769;-73
2022/06/05 11:58:31;;;;;;;13.70;12.50;;;20.30;99.90;;;;;;2610228;31;20994;-73
2022/06/05 12:01:05;;;;;;;14.10;13.00;;;20.20;99.90;;;;;;2607453;39;20788;-74
2022/06/05 12:03:39;;;;;;;15.13;13.93;;;20.20;99.90;;;;;;2610417;54;20415;-75
2022/06/05 12:06:21;;;;;;;14.47;13.40;;;20.10;99.90;;;;;;2609678;54;20858;-75
2022/06/05 12:08:50;;;;;;;14.47;13.37;;;20.00;99.90;;;;;;2610191;54;20411;-79
2022/06/05 12:11:41;;;;;;;15.03;13.83;;;20.00;99.90;;;;;;2609205;54;20466;-79
2022/06/05 12:14:21;;;;;;;15.67;14.37;;;20.10;99.90;;;;;;2609273;54;20411;-74
2022/06/05 12:17:06;;;;;;;14.70;13.63;;;20.20;99.90;;;;;;2610457;39;20805;-74
2022/06/05 12:19:37;;;;;;;15.37;14.00;;;20.20;99.90;;;;;;2609183;39;20880;-74
2022/06/05 12:22:18;;;;;;;15.67;14.37;;;20.20;99.90;;;;;;2609716;54;20433;-74
2022/06/05 12:24:54;;;;;;;15.13;13.93;;;20.40;99.90;;;;;;2610759;54;20410;-78
2022/06/05 12:27:23;;;;;;;14.37;13.17;;;20.60;99.90;;;;;;2611174;54;20420;-77
2022/06/05 12:30:05;;;;;;;14.03;13.03;;;21.10;99.90;;;;;;2609815;39;20828;-74
2022/06/05 12:33:11;;;;;;;14.33;13.27;;;21.60;99.90;;;;;;2610034;54;20873;-73
2022/06/05 12:35:41;;;;;;;13.77;12.67;;;21.70;99.90;;;;;;2609598;54;20962;-74
2022/06/05 12:38:13;;;;;;;13.30;12.40;;;22.20;99.90;;;;;;2608407;54;20439;-74
2022/06/05 12:40:46;;;;;;;12.23;11.13;;;22.40;99.90;;;;;;2609655;54;20954;-73
2022/06/05 12:43:22;;;;;;;13.20;12.20;;;22.70;99.90;;;;;;2608371;54;20979;-74
2022/06/05 12:45:53;;;;;;;12.73;11.80;;;22.70;99.90;;;;;;2609305;54;20413;-74
2022/06/05 12:48:24;;;;;;;13.17;12.03;;;23.00;99.90;;;;;;2608780;39;20889;-75
2022/06/05 12:51:12;;;;;;;13.10;11.90;;;23.30;99.90;;;;;;2609440;54;20463;-73
2022/06/05 12:53:41;;;;;;;12.40;11.40;;;23.50;99.90;;;;;;2608062;54;20578;-74
2022/06/05 12:56:15;;;;;;;11.17;10.47;;;23.60;99.90;;;;;;2609139;47;20454;-75
2022/06/05 12:59:10;;;;;;;11.53;10.73;;;23.50;99.90;;;;;;2611352;54;20463;-84
2022/06/05 13:01:38;;;;;;;11.57;10.67;;;23.30;99.90;;;;;;2614168;54;20424;-85
2022/06/05 13:04:17;;;;;;;11.40;10.60;;;23.20;99.90;;;;;;2613200;54;21043;-73
2022/06/05 13:07:22;;;;;;;10.50;9.70;;;23.00;99.90;;;;;;2609043;54;20583;-73
2022/06/05 13:09:53;;;;;;;10.40;9.67;;;22.80;99.90;;;;;;2609147;46;20457;-75
2022/06/05 13:12:26;;;;;;;10.20;9.30;;;23.20;99.90;;;;;;2609348;54;20419;-75
2022/06/05 13:15:03;;;;;;;8.77;8.07;;;23.20;99.90;;;;;;2609202;39;20600;-77
2022/06/05 13:17:47;;;;;;;9.77;8.97;;;23.60;99.90;;;;;;2609304;54;20423;-75
2022/06/05 13:20:16;;;;;;;10.20;9.30;;;23.40;99.90;;;;;;2613060;54;20495;-83
2022/06/05 13:23:25;;;;;;;10.53;9.33;;;23.60;99.90;;;;;;2616565;39;20931;-85
2022/06/05 13:25:57;;;;;;;10.67;9.93;;;23.70;99.90;;;;;;2608764;48;20439;-75
2022/06/05 13:28:44;;;;;;;10.67;9.57;;;24.00;99.90;;;;;;2637787;36;20491;-74
2022/06/05 13:31:49;;;;;;;10.03;9.33;;;23.60;99.90;;;;;;2608662;54;20826;-75